Time;durP1;ratioP1;P1;durP2;ratioP2;P2;SDS_P1;SDS_P2;PMS_P1;PMS_P2;Temp;Humidity;BMP_temperature;BMP_pressure;BME280_temperature;BME280_humidity;BME280_pressure;Samples;Min_cycle;Max_cycle;Signal;HPM_P1;HPM_P2
2023/01/02 00:02:21;;;;;;;1.17;0.77;;;;;;;10.02;71.54;95804.22;4362173;32;20173;-60
2023/01/02 00:04:47;;;;;;;0.50;0.50;;;;;;;9.90;71.94;95793.97;4358673;32;20240;-60
2023/01/02 00:07:12;;;;;;;1.43;1.03;;;;;;;9.85;72.10;95804.62;4364713;32;20338;-62
2023/01/02 00:09:37;;;;;;;0.67;0.60;;;;;;;9.85;72.27;95798.53;4370411;32;20204;-61
2023/01/02 00:12:03;;;;;;;0.50;0.40;;;;;;;9.65;72.93;95787.00;4356501;32;20238;-61
2023/01/02 00:14:28;;;;;;;1.10;1.10;;;;;;;9.71;72.88;95789.62;4365738;32;20188;-61
2023/01/02 00:16:53;;;;;;;0.40;0.40;;;;;;;9.70;72.67;95782.75;4373448;32;20216;-62
2023/01/02 00:19:19;;;;;;;0.67;0.67;;;;;;;9.87;72.12;95778.63;4354039;32;20255;-61
2023/01/02 00:21:44;;;;;;;0.57;0.57;;;;;;;9.78;72.30;95776.84;4359433;32;20199;-61
2023/01/02 00:24:09;;;;;;;0.60;0.60;;;;;;;9.87;72.01;95783.12;4361858;32;20196;-62
2023/01/02 00:26:35;;;;;;;0.20;0.20;;;;;;;9.75;72.26;95783.50;4374842;32;20184;-61
2023/01/02 00:29:00;;;;;;;0.77;0.77;;;;;;;9.70;72.11;95786.19;4363764;32;20205;-62
2023/01/02 00:31:26;;;;;;;0.70;0.63;;;;;;;9.72;73.04;95789.34;4359654;32;20209;-61
2023/01/02 00:33:51;;;;;;;0.57;0.57;;;;;;;9.73;72.88;95779.53;4366104;32;20207;-61
2023/01/02 00:36:16;;;;;;;0.37;0.37;;;;;;;9.82;71.69;95778.66;4368314;32;20182;-61
2023/01/02 00:38:42;;;;;;;0.80;0.80;;;;;;;9.60;73.12;95781.72;4358569;32;20353;-61
2023/01/02 00:41:08;;;;;;;0.77;0.77;;;;;;;9.70;72.85;95785.37;4364830;32;20176;-62
2023/01/02 00:43:34;;;;;;;0.80;0.80;;;;;;;9.63;72.53;95786.47;4366424;32;20180;-61
2023/01/02 00:45:59;;;;;;;0.67;0.67;;;;;;;9.59;72.73;95780.16;4365687;32;20196;-61
2023/01/02 00:48:25;;;;;;;0.33;0.33;;;;;;;9.66;72.67;95785.16;4369463;32;20189;-62
2023/01/02 00:50:50;;;;;;;0.47;0.47;;;;;;;9.43;74.72;95770.72;4371415;32;20247;-61
2023/01/02 00:53:15;;;;;;;1.27;0.83;;;;;;;9.59;73.58;95785.44;4363172;32;20199;-61
2023/01/02 00:55:44;;;;;;;0.40;0.40;;;;;;;9.46;73.86;95780.78;4370247;32;20240;-61
2023/01/02 00:58:10;;;;;;;0.93;0.93;;;;;;;9.59;74.04;95774.06;4359238;32;20193;-61
2023/01/02 01:00:36;;;;;;;0.27;0.27;;;;;;;9.66;73.02;95779.84;4361780;32;20185;-61
2023/01/02 01:03:01;;;;;;;0.87;0.87;;;;;;;9.40;74.13;95784.50;4378295;32;20198;-61
2023/01/02 01:05:27;;;;;;;0.70;0.70;;;;;;;9.49;73.98;95777.59;4370869;32;20199;-61
2023/01/02 01:07:54;;;;;;;1.40;0.90;;;;;;;9.47;74.21;95773.63;4374144;32;20199;-64
2023/01/02 01:10:20;;;;;;;0.93;0.93;;;;;;;9.35;74.82;95768.69;4355961;32;20252;-61
2023/01/02 01:12:46;;;;;;;0.70;0.70;;;;;;;9.34;74.87;95771.59;4358782;32;20196;-61
2023/01/02 01:15:11;;;;;;;1.87;1.77;;;;;;;9.49;74.14;95780.22;4369891;32;20239;-61
2023/01/02 01:17:37;;;;;;;0.77;0.67;;;;;;;9.49;74.23;95777.59;4375006;32;20189;-61
2023/01/02 01:20:03;;;;;;;1.03;1.03;;;;;;;9.49;73.81;95774.94;4360450;32;20251;-61
2023/01/02 01:22:28;;;;;;;0.30;0.30;;;;;;;9.57;73.31;95776.97;4370102;32;20244;-61
2023/01/02 01:24:53;;;;;;;0.27;0.27;;;;;;;9.23;74.77;95781.44;4366852;32;20213;-61
2023/01/02 01:27:19;;;;;;;0.40;0.40;;;;;;;9.20;75.09;95784.63;4365874;32;20180;-61
2023/01/02 01:29:44;;;;;;;0.50;0.50;;;;;;;9.37;74.18;95781.62;4370685;32;20176;-61
2023/01/02 01:32:09;;;;;;;0.83;0.83;;;;;;;9.18;74.56;95778.81;4374933;32;20190;-61
2023/01/02 01:34:35;;;;;;;0.77;0.53;;;;;;;9.16;75.89;95778.28;4353690;32;20181;-61
2023/01/02 01:37:00;;;;;;;0.40;0.40;;;;;;;9.21;75.48;95783.56;4358360;32;20185;-61
2023/01/02 01:39:25;;;;;;;0.70;0.70;;;;;;;9.16;76.82;95786.22;4357478;32;20196;-61
2023/01/02 01:41:51;;;;;;;1.00;1.00;;;;;;;9.27;75.80;95782.47;4368599;32;20272;-61
2023/01/02 01:44:44;;;;;;;0.60;0.60;;;;;;;9.36;74.86;95787.97;4383818;32;20207;-61
2023/01/02 01:47:17;;;;;;;0.40;0.40;;;;;;;9.30;76.08;95774.00;4366741;32;20212;-61
2023/01/02 01:49:44;;;;;;;0.70;0.70;;;;;;;9.34;75.61;95768.94;4362827;32;20406;-61
2023/01/02 01:52:14;;;;;;;0.57;0.57;;;;;;;9.36;74.84;95777.38;4362928;32;20184;-61
2023/01/02 01:54:55;;;;;;;0.87;0.87;;;;;;;9.35;75.24;95773.97;4357761;32;20199;-62
2023/01/02 01:57:33;;;;;;;0.73;0.73;;;;;;;9.32;75.05;95779.81;4378240;32;20177;-61
2023/01/02 02:00:00;;;;;;;1.33;1.00;;;;;;;9.24;75.23;95778.53;4363161;32;20203;-61
2023/01/02 02:02:27;;;;;;;0.33;0.23;;;;;;;9.39;74.52;95785.56;4381543;32;20177;-61
2023/01/02 02:04:54;;;;;;;0.93;0.83;;;;;;;9.38;74.23;95791.13;4368736;32;20200;-61
2023/01/02 02:07:19;;;;;;;0.43;0.43;;;;;;;9.24;75.12;95783.81;4370592;32;20177;-61
2023/01/02 02:10:08;;;;;;;0.27;0.27;;;;;;;9.22;75.41;95791.22;4374344;32;20306;-61
2023/01/02 02:12:34;;;;;;;0.30;0.30;;;;;;;9.14;75.55;95783.09;4368723;32;20181;-61
2023/01/02 02:14:59;;;;;;;0.40;0.40;;;;;;;9.29;75.20;95780.34;4365474;32;20189;-61
2023/01/02 02:18:02;;;;;;;0.63;0.63;;;;;;;9.28;74.93;95776.13;4345882;32;20192;-62
2023/01/02 02:20:48;;;;;;;0.90;0.90;;;;;;;9.32;74.31;95771.87;4364443;32;20199;-61
2023/01/02 02:23:28;;;;;;;0.87;0.87;;;;;;;9.11;76.29;95767.75;4385019;32;20257;-61
2023/01/02 02:26:12;;;;;;;0.73;0.73;;;;;;;9.10;76.42;95774.91;4373025;32;20280;-61
2023/01/02 02:29:03;;;;;;;1.03;0.80;;;;;;;9.21;75.20;95778.25;4364115;32;20259;-61
2023/01/02 02:31:35;;;;;;;0.60;0.60;;;;;;;9.08;75.87;95763.78;4357806;32;20196;-61
2023/01/02 02:34:16;;;;;;;0.90;0.90;;;;;;;9.15;75.63;95774.06;4361510;32;20226;-61
2023/01/02 02:36:56;;;;;;;0.40;0.40;;;;;;;9.10;76.04;95760.88;4365309;32;20203;-61
2023/01/02 02:40:00;;;;;;;0.87;0.87;;;;;;;9.31;74.40;95762.34;4370296;32;20188;-61
2023/01/02 02:42:51;;;;;;;0.60;0.60;;;;;;;9.14;75.20;95757.41;4298993;33;20282;-62
2023/01/02 02:46:00;;;;;;;0.70;0.70;;;;;;;9.14;75.14;95754.75;4307573;33;20270;-61
2023/01/02 02:48:41;;;;;;;0.40;0.40;;;;;;;9.29;74.39;95756.53;4322832;32;20189;-62
2023/01/02 02:51:12;;;;;;;0.30;0.30;;;;;;;9.18;74.56;95762.91;4361415;32;20180;-61
2023/01/02 02:53:44;;;;;;;0.37;0.37;;;;;;;9.22;74.69;95758.69;4366320;32;20213;-61
2023/01/02 02:56:10;;;;;;;0.63;0.63;;;;;;;8.97;75.86;95754.28;4359205;32;20185;-61
2023/01/02 02:58:38;;;;;;;0.70;0.70;;;;;;;9.17;74.98;95756.03;4362614;32;20384;-61
2023/01/02 03:01:12;;;;;;;0.60;0.60;;;;;;;8.86;76.22;95739.53;4358303;32;20319;-62
2023/01/02 03:03:38;;;;;;;0.53;0.53;;;;;;;9.04;75.36;95743.44;4368419;32;20181;-61
2023/01/02 03:06:15;;;;;;;0.33;0.33;;;;;;;8.75;76.18;95738.00;4365589;32;20226;-61
2023/01/02 03:09:03;;;;;;;0.77;0.77;;;;;;;8.68;76.63;95735.66;4372111;32;20181;-61
2023/01/02 03:11:49;;;;;;;0.30;0.30;;;;;;;8.94;75.79;95742.41;4373408;32;20268;-61
2023/01/02 03:14:30;;;;;;;0.47;0.47;;;;;;;9.02;75.46;95742.91;4355436;32;20292;-62
2023/01/02 03:17:10;;;;;;;0.33;0.33;;;;;;;8.94;76.24;95737.09;4357286;32;20324;-62
2023/01/02 03:19:39;;;;;;;0.43;0.43;;;;;;;8.94;75.60;95737.09;4361988;32;20327;-61
2023/01/02 03:22:12;;;;;;;0.70;0.70;;;;;;;9.03;75.04;95737.34;4371712;32;20212;-61
2023/01/02 03:24:39;;;;;;;0.50;0.50;;;;;;;8.84;76.15;95729.22;4365697;32;20181;-61
2023/01/02 03:27:10;;;;;;;0.67;0.67;;;;;;;9.09;74.73;95744.19;4379985;32;20347;-62
2023/01/02 03:29:41;;;;;;;1.70;0.70;;;;;;;9.04;74.45;95724.91;4358407;32;20277;-62
2023/01/02 03:32:12;;;;;;;0.50;0.50;;;;;;;9.05;74.89;95726.47;4355842;32;20299;-62
2023/01/02 03:34:40;;;;;;;0.97;0.60;;;;;;;8.87;75.22;95719.97;4361000;32;20292;-61
2023/01/02 03:37:10;;;;;;;0.53;0.53;;;;;;;8.85;75.31;95722.88;4360628;32;20368;-62
2023/01/02 03:39:44;;;;;;;0.70;0.70;;;;;;;8.65;76.13;95717.69;4350334;32;20376;-61
2023/01/02 03:42:15;;;;;;;0.57;0.53;;;;;;;8.53;76.68;95711.91;4363497;32;20265;-61
2023/01/02 03:44:46;;;;;;;0.77;0.77;;;;;;;8.64;76.18;95700.22;4353779;32;20312;-62
2023/01/02 03:47:28;;;;;;;0.43;0.43;;;;;;;8.73;75.46;95701.22;4356951;32;20297;-61
2023/01/02 03:49:58;;;;;;;0.40;0.40;;;;;;;8.70;75.44;95699.16;4352597;32;20277;-61
2023/01/02 03:52:23;;;;;;;0.37;0.37;;;;;;;8.72;75.05;95701.53;4358044;32;20308;-63
2023/01/02 03:54:48;;;;;;;0.60;0.60;;;;;;;8.66;74.64;95703.41;4368920;32;20281;-61
2023/01/02 03:57:33;;;;;;;0.30;0.30;;;;;;;8.63;74.90;95709.22;4360037;32;20193;-62
2023/01/02 04:00:12;;;;;;;0.23;0.23;;;;;;;8.52;75.26;95702.41;4367793;32;20173;-61
2023/01/02 04:02:53;;;;;;;0.53;0.53;;;;;;;8.55;74.86;95696.56;4374622;32;20284;-61
2023/01/02 04:05:28;;;;;;;0.50;0.50;;;;;;;8.46;75.01;95698.97;4349007;32;20269;-61
2023/01/02 04:08:15;;;;;;;0.57;0.57;;;;;;;7.92;76.76;95704.09;4351379;32;20367;-61
2023/01/02 04:10:44;;;;;;;0.93;0.67;;;;;;;8.02;76.77;95701.44;4356669;32;20235;-61
2023/01/02 04:13:26;;;;;;;0.60;0.60;;;;;;;8.05;76.53;95698.28;4363399;32;20303;-61
2023/01/02 04:15:52;;;;;;;0.57;0.47;;;;;;;8.17;76.24;95701.41;4366193;32;20291;-61
2023/01/02 04:18:34;;;;;;;0.63;0.63;;;;;;;8.05;76.30;95700.91;4362979;32;20299;-61
2023/01/02 04:21:06;;;;;;;0.10;0.10;;;;;;;8.04;76.36;95706.47;4372324;32;20288;-61
2023/01/02 04:23:40;;;;;;;0.63;0.63;;;;;;;8.00;76.19;95700.91;4372051;32;20281;-61
2023/01/02 04:26:10;;;;;;;0.30;0.30;;;;;;;8.12;76.34;95706.69;4358502;32;20328;-61
2023/01/02 04:28:36;;;;;;;0.37;0.37;;;;;;;8.07;76.23;95696.16;4353311;32;20286;-61
2023/01/02 04:31:10;;;;;;;0.33;0.33;;;;;;;7.97;76.22;95698.81;4368706;32;20300;-61
2023/01/02 04:33:50;;;;;;;0.20;0.20;;;;;;;7.92;76.43;95698.81;4353112;32;20189;-61
2023/01/02 04:36:16;;;;;;;0.50;0.50;;;;;;;7.78;76.60;95690.66;4365556;32;20281;-61
2023/01/02 04:38:43;;;;;;;0.20;0.20;;;;;;;7.74;76.72;95689.59;4356400;32;20285;-61
2023/01/02 04:41:10;;;;;;;0.13;0.13;;;;;;;7.56;77.74;95695.41;4355494;32;20231;-61
2023/01/02 04:43:35;;;;;;;0.10;0.10;;;;;;;7.57;78.15;95697.78;4372647;32;20321;-61
2023/01/02 04:46:01;;;;;;;0.47;0.47;;;;;;;7.55;77.93;95699.91;4361567;32;20288;-61
2023/01/02 04:48:26;;;;;;;0.50;0.50;;;;;;;7.62;77.37;95694.37;4351822;32;20184;-61
2023/01/02 04:50:54;;;;;;;0.13;0.13;;;;;;;7.49;77.69;95698.31;4370616;32;20219;-61
2023/01/02 04:53:20;;;;;;;0.10;0.10;;;;;;;7.76;77.16;95700.69;4364947;32;20177;-62
2023/01/02 04:55:45;;;;;;;0.23;0.23;;;;;;;7.97;75.98;95693.53;4366010;32;20299;-62
2023/01/02 04:58:11;;;;;;;0.57;0.20;;;;;;;8.00;75.06;95711.50;4371333;32;20192;-61
2023/01/02 05:00:36;;;;;;;0.10;0.10;;;;;;;8.19;74.63;95709.06;4351654;32;20185;-61
2023/01/02 05:03:03;;;;;;;0.30;0.30;;;;;;;8.29;73.90;95714.34;4358968;32;20181;-62
2023/01/02 05:05:28;;;;;;;0.47;0.47;;;;;;;8.24;73.68;95717.78;4374729;32;20207;-61
2023/01/02 05:07:53;;;;;;;0.50;0.50;;;;;;;8.01;75.16;95707.00;4379397;32;20273;-62
2023/01/02 05:10:19;;;;;;;0.37;0.37;;;;;;;8.05;75.97;95714.12;4362238;32;20181;-61
2023/01/02 05:12:50;;;;;;;0.10;0.10;;;;;;;8.05;75.92;95716.78;4362917;32;20204;-62
2023/01/02 05:15:15;;;;;;;0.20;0.20;;;;;;;8.12;75.46;95733.13;4353921;32;20268;-62
2023/01/02 05:17:41;;;;;;;0.40;0.40;;;;;;;7.94;75.57;95734.47;4348198;32;20320;-61
2023/01/02 05:20:09;;;;;;;0.27;0.27;;;;;;;8.07;75.62;95725.22;4350706;32;20182;-61
2023/01/02 05:25:21;;;;;;;0.30;0.30;;;;;;;7.71;76.95;95724.44;4363334;32;20395;-62
2023/01/02 05:27:46;;;;;;;0.30;0.30;;;;;;;8.00;75.94;95713.34;4375728;32;20277;-61
2023/01/02 05:30:12;;;;;;;0.37;0.37;;;;;;;7.90;75.79;95708.84;4391588;32;20177;-61
2023/01/02 05:32:37;;;;;;;0.40;0.40;;;;;;;7.94;75.94;95712.53;4358844;32;20177;-62
2023/01/02 05:35:03;;;;;;;0.10;0.10;;;;;;;8.13;75.00;95716.22;4362006;32;20197;-61
2023/01/02 05:37:29;;;;;;;0.60;0.60;;;;;;;8.07;75.10;95714.66;4367240;32;20196;-61
2023/01/02 05:39:54;;;;;;;0.30;0.30;;;;;;;8.26;74.35;95728.88;4376122;32;20172;-62
2023/01/02 05:42:19;;;;;;;0.20;0.20;;;;;;;8.37;73.87;95715.66;4370151;32;20292;-61
2023/01/02 05:44:45;;;;;;;0.20;0.20;;;;;;;8.38;73.61;95723.31;4372978;32;20196;-62
2023/01/02 05:47:11;;;;;;;0.30;0.30;;;;;;;8.34;73.87;95721.47;4364336;32;20196;-62
2023/01/02 05:49:36;;;;;;;0.23;0.23;;;;;;;8.19;74.60;95717.78;4368025;32;20169;-62
2023/01/02 05:52:01;;;;;;;0.07;0.07;;;;;;;8.31;74.52;95716.72;4363057;32;20194;-62
2023/01/02 05:54:26;;;;;;;0.07;0.07;;;;;;;8.31;74.86;95712.22;4354992;32;20181;-62
2023/01/02 05:56:52;;;;;;;0.10;0.10;;;;;;;8.39;74.24;95713.53;4361555;32;20169;-61
2023/01/02 05:59:17;;;;;;;0.20;0.20;;;;;;;8.43;73.48;95711.94;4362059;32;20270;-62
2023/01/02 06:01:42;;;;;;;0.00;0.00;;;;;;;8.43;73.29;95704.81;4359051;32;20256;-62
2023/01/02 06:04:08;;;;;;;0.10;0.10;;;;;;;8.44;73.19;95710.87;4357247;32;20181;-62
2023/01/02 06:06:37;;;;;;;0.07;0.07;;;;;;;8.59;72.69;95713.47;4341481;32;20182;-62
2023/01/02 06:09:04;;;;;;;0.50;0.50;;;;;;;8.41;72.72;95724.63;4366852;32;20184;-62
2023/01/02 06:11:30;;;;;;;0.20;0.20;;;;;;;8.58;72.29;95725.09;4367941;32;20264;-62
2023/01/02 06:13:56;;;;;;;0.30;0.30;;;;;;;8.59;71.98;95729.34;4375301;32;20428;-62
2023/01/02 06:16:21;;;;;;;0.30;0.30;;;;;;;8.46;72.77;95743.13;4368696;32;20277;-62
2023/01/02 06:18:48;;;;;;;0.43;0.43;;;;;;;8.40;73.69;95749.47;4364426;32;20196;-62
2023/01/02 06:21:15;;;;;;;0.87;0.40;;;;;;;8.25;74.45;95745.78;4363129;32;20445;-62
2023/01/02 06:23:41;;;;;;;0.10;0.10;;;;;;;8.26;74.36;95747.37;4368398;32;20395;-62
2023/01/02 06:26:11;;;;;;;0.80;0.80;;;;;;;8.31;74.75;95753.72;4356875;32;20273;-62
2023/01/02 06:31:58;;;;;;;0.40;0.37;;;;;;;8.43;74.37;95736.53;4347218;32;20292;-62
2023/01/02 06:34:24;;;;;;;0.00;0.00;;;;;;;8.45;74.37;95734.41;4354852;32;20273;-64
2023/01/02 06:36:49;;;;;;;0.20;0.20;;;;;;;8.39;75.07;95729.41;4366782;32;20184;-62
2023/01/02 06:39:15;;;;;;;0.73;0.73;;;;;;;8.37;75.74;95734.16;4350984;32;20332;-61
2023/01/02 06:41:40;;;;;;;2.13;0.63;;;;;;;8.30;75.24;95741.56;4365290;32;20267;-61
2023/01/02 06:44:05;;;;;;;6.63;0.43;;;;;;;8.26;75.36;95731.53;4361453;32;20254;-62
2023/01/02 06:46:30;;;;;;;0.80;0.80;;;;;;;8.40;75.76;95741.56;4374429;32;20204;-61
2023/01/02 06:48:56;;;;;;;0.47;0.47;;;;;;;8.48;74.86;95746.31;4373616;32;20181;-61
2023/01/02 06:51:22;;;;;;;0.40;0.40;;;;;;;8.40;75.21;95737.06;4335610;32;20189;-61
2023/01/02 06:53:47;;;;;;;1.67;0.90;;;;;;;8.36;75.46;95740.50;4359190;32;20271;-61
2023/01/02 06:56:16;;;;;;;0.57;0.57;;;;;;;8.49;74.85;95732.03;4366603;32;20380;-61
2023/01/02 06:58:41;;;;;;;1.33;0.50;;;;;;;8.53;74.65;95730.41;4337593;32;20228;-61
2023/01/02 07:01:17;;;;;;;1.27;0.57;;;;;;;8.38;75.04;95744.47;4369405;32;20280;-62
2023/01/02 07:03:43;;;;;;;0.60;0.60;;;;;;;8.43;75.47;95741.03;4381626;32;20191;-61
2023/01/02 07:06:17;;;;;;;0.70;0.50;;;;;;;8.39;75.12;95740.75;4367771;32;20329;-62
2023/01/02 07:08:43;;;;;;;1.20;1.20;;;;;;;8.29;75.25;95738.13;4366471;32;20190;-61
2023/01/02 07:11:14;;;;;;;0.77;0.77;;;;;;;8.26;75.58;95742.09;4367317;32;20284;-62
2023/01/02 07:13:42;;;;;;;1.50;0.87;;;;;;;8.38;74.93;95738.38;4360525;32;20294;-62
2023/01/02 07:16:11;;;;;;;0.83;0.60;;;;;;;8.20;76.00;95739.72;4361397;32;20357;-61
2023/01/02 07:18:36;;;;;;;2.27;1.00;;;;;;;8.30;75.82;95734.44;4359777;32;20269;-61
2023/01/02 07:21:02;;;;;;;0.67;0.67;;;;;;;8.27;75.49;95738.41;4353067;32;20296;-62
2023/01/02 07:23:28;;;;;;;0.60;0.60;;;;;;;8.28;75.41;95739.97;4361451;32;20276;-62
2023/01/02 07:25:55;;;;;;;1.60;0.87;;;;;;;8.34;75.12;95737.34;4362421;32;20296;-63
2023/01/02 07:28:21;;;;;;;0.90;0.90;;;;;;;8.33;75.21;95738.38;4366837;32;20227;-63
2023/01/02 07:30:47;;;;;;;0.37;0.37;;;;;;;8.25;75.63;95729.16;4366725;32;20272;-63
2023/01/02 07:33:12;;;;;;;0.93;0.93;;;;;;;8.27;75.71;95741.03;4366330;32;20311;-62
2023/01/02 07:35:38;;;;;;;0.83;0.83;;;;;;;8.13;76.12;95742.63;4351894;32;20176;-62
2023/01/02 07:38:03;;;;;;;0.43;0.43;;;;;;;8.11;76.50;95760.59;4356258;32;20199;-62
2023/01/02 07:40:28;;;;;;;1.37;1.27;;;;;;;8.12;76.65;95762.19;4367272;32;20226;-63
2023/01/02 07:42:53;;;;;;;0.50;0.50;;;;;;;8.22;75.94;95767.47;4373524;32;20241;-64
2023/01/02 07:45:19;;;;;;;1.60;0.77;;;;;;;8.20;76.50;95779.37;4363379;32;20267;-63
2023/01/02 07:47:44;;;;;;;0.57;0.57;;;;;;;8.13;76.44;95779.63;4361212;32;20245;-62
2023/01/02 07:50:09;;;;;;;0.20;0.20;;;;;;;8.18;76.84;95782.28;4341778;32;20263;-62
2023/01/02 07:52:35;;;;;;;0.53;0.53;;;;;;;7.97;77.49;95772.78;4364051;32;20300;-62
2023/01/02 07:55:00;;;;;;;0.70;0.70;;;;;;;8.09;77.42;95770.66;4350833;32;20228;-62
2023/01/02 07:57:28;;;;;;;0.50;0.50;;;;;;;8.14;77.39;95768.00;4349760;32;20181;-62
2023/01/02 07:59:54;;;;;;;0.47;0.47;;;;;;;8.19;77.36;95773.28;4358174;32;20197;-63
2023/01/02 08:02:19;;;;;;;0.70;0.33;;;;;;;8.18;77.67;95771.69;4372501;32;20281;-63
2023/01/02 08:04:44;;;;;;;0.30;0.30;;;;;;;8.36;77.09;95751.88;4361197;32;20199;-62
2023/01/02 08:07:10;;;;;;;0.53;0.53;;;;;;;8.35;77.07;95757.41;4351654;32;20181;-63
2023/01/02 08:09:35;;;;;;;0.80;0.60;;;;;;;8.24;77.76;95757.44;4355301;32;20299;-63
2023/01/02 08:12:01;;;;;;;0.87;0.60;;;;;;;8.25;77.98;95758.22;4359999;32;20181;-55
2023/01/02 08:14:26;;;;;;;0.67;0.67;;;;;;;9.57;97.66;95755.00;4367272;32;20192;-55
2023/01/02 08:16:51;;;;;;;4.50;0.77;;;;;;;10.31;100.00;95760.00;4372662;32;20192;-55
2023/01/02 08:19:16;;;;;;;0.40;0.40;;;;;;;10.79;97.64;95764.53;4351730;32;20176;-56
2023/01/02 08:21:43;;;;;;;0.17;0.17;;;;;;;11.20;89.19;95764.81;4364384;32;20181;-54
2023/01/02 08:24:09;;;;;;;1.07;0.77;;;;;;;11.52;83.86;95762.25;4370745;32;20195;-56
2023/01/02 08:26:34;;;;;;;0.70;0.70;;;;;;;11.96;79.25;95767.19;4352060;32;20185;-54
2023/01/02 08:28:59;;;;;;;0.30;0.30;;;;;;;12.34;78.58;95778.50;4365062;32;20189;-56
2023/01/02 08:31:24;;;;;;;3.23;0.80;;;;;;;12.48;75.20;95778.53;4360411;32;20211;-62
2023/01/02 08:33:50;;;;;;;1.13;1.10;;;;;;;12.21;66.75;95783.81;4348840;32;20189;-61
2023/01/02 08:36:15;;;;;;;0.47;0.47;;;;;;;11.60;64.75;95785.50;4353388;32;20228;-62
2023/01/02 08:38:41;;;;;;;0.57;0.57;;;;;;;11.08;66.18;95783.81;4367957;32;20205;-61
2023/01/02 08:41:07;;;;;;;0.63;0.63;;;;;;;10.67;67.45;95791.44;4366472;32;20189;-61
2023/01/02 08:43:34;;;;;;;0.77;0.77;;;;;;;10.14;69.06;95799.38;4364396;32;20196;-61
2023/01/02 08:46:07;;;;;;;0.60;0.60;;;;;;;9.88;70.31;95798.75;4356103;32;20205;-61
2023/01/02 08:48:33;;;;;;;4.47;1.20;;;;;;;9.46;72.58;95791.38;4358578;32;20205;-61
2023/01/02 08:50:59;;;;;;;0.60;0.60;;;;;;;9.48;73.31;95799.84;4363143;32;20184;-61
2023/01/02 08:53:24;;;;;;;3.30;1.33;;;;;;;9.63;72.05;95801.59;4365224;32;20249;-61
2023/01/02 08:55:49;;;;;;;1.57;1.10;;;;;;;9.65;71.77;95810.06;4356572;32;20181;-61
2023/01/02 08:58:15;;;;;;;5.73;1.27;;;;;;;9.45;73.86;95818.91;4359897;32;20243;-61
2023/01/02 09:00:40;;;;;;;1.00;1.00;;;;;;;9.50;73.96;95821.53;4352926;32;20196;-61
2023/01/02 09:03:05;;;;;;;0.97;0.97;;;;;;;9.79;72.85;95807.56;4358312;32;20227;-61
2023/01/02 09:05:31;;;;;;;1.40;1.03;;;;;;;9.51;73.82;95819.69;4358144;32;20186;-61
2023/01/02 09:07:57;;;;;;;1.47;0.93;;;;;;;9.36;74.50;95812.59;4357179;32;20204;-62
2023/01/02 09:10:23;;;;;;;1.83;1.73;;;;;;;9.39;74.94;95814.69;4376695;32;20240;-61
2023/01/02 09:12:48;;;;;;;1.53;0.90;;;;;;;9.50;74.96;95812.81;4372518;32;20208;-62
2023/01/02 09:15:13;;;;;;;1.03;1.03;;;;;;;9.34;75.35;95814.75;4370942;32;20261;-61
2023/01/02 09:17:38;;;;;;;1.87;1.13;;;;;;;9.35;76.02;95813.69;4371848;32;20189;-61
2023/01/02 09:20:05;;;;;;;0.70;0.70;;;;;;;9.33;76.39;95805.22;4353595;32;20193;-61
2023/01/02 09:22:30;;;;;;;0.77;0.77;;;;;;;9.58;75.93;95807.69;4360642;32;20268;-62
2023/01/02 09:24:55;;;;;;;0.90;0.90;;;;;;;9.68;75.52;95800.78;4366391;32;20212;-61
2023/01/02 09:27:21;;;;;;;0.63;0.63;;;;;;;9.75;74.69;95812.66;4358520;32;20217;-61
2023/01/02 09:29:46;;;;;;;0.67;0.67;;;;;;;9.85;74.63;95819.72;4365381;32;20189;-61
2023/01/02 09:32:11;;;;;;;1.60;1.50;;;;;;;9.70;75.56;95823.28;4360788;32;20188;-61
2023/01/02 09:34:37;;;;;;;1.17;1.07;;;;;;;9.84;75.12;95815.50;4366810;32;20185;-61
2023/01/02 09:37:02;;;;;;;2.47;2.27;;;;;;;9.91;75.09;95818.63;4358437;32;20197;-62
2023/01/02 09:39:27;;;;;;;2.17;1.87;;;;;;;9.94;74.66;95813.56;4353347;32;20200;-61
2023/01/02 09:41:56;;;;;;;2.17;2.07;;;;;;;9.97;75.37;95802.41;4355987;32;20216;-61
2023/01/02 09:44:27;;;;;;;2.50;1.53;;;;;;;9.90;75.43;95807.22;4361472;32;20243;-61
2023/01/02 09:47:16;;;;;;;4.00;2.07;;;;;;;9.92;75.86;95809.59;4367396;32;20177;-61
2023/01/02 09:49:53;;;;;;;1.63;1.60;;;;;;;9.91;75.88;95815.97;4370221;32;20247;-61
2023/01/02 09:52:29;;;;;;;1.27;1.20;;;;;;;9.92;76.64;95809.59;4367326;32;20204;-60
2023/01/02 09:54:59;;;;;;;1.40;1.33;;;;;;;9.96;74.38;95810.66;4367695;32;20189;-63
2023/01/02 09:57:27;;;;;;;0.80;0.80;;;;;;;10.08;74.33;95810.28;4357608;32;20268;-60
2023/01/02 09:59:53;;;;;;;0.90;0.90;;;;;;;10.28;73.56;95802.97;4369820;32;20267;-61
2023/01/02 10:02:29;;;;;;;1.23;0.90;;;;;;;10.48;73.12;95815.25;4356394;32;20180;-61
2023/01/02 10:05:01;;;;;;;0.73;0.70;;;;;;;10.61;71.36;95813.78;4368345;32;20188;-61
2023/01/02 10:07:36;;;;;;;3.43;1.40;;;;;;;10.80;70.19;95819.97;4370516;32;20216;-61
2023/01/02 10:10:01;;;;;;;1.17;1.07;;;;;;;10.96;70.08;95818.75;4352122;32;20186;-61
2023/01/02 10:12:34;;;;;;;0.70;0.70;;;;;;;11.10;67.49;95821.50;4351757;32;20176;-61
2023/01/02 10:15:02;;;;;;;0.50;0.50;;;;;;;11.13;68.24;95809.50;4355026;32;20189;-61
2023/01/02 10:17:34;;;;;;;2.00;1.80;;;;;;;11.40;66.20;95806.25;4353350;32;20206;-61
2023/01/02 10:20:07;;;;;;;1.40;1.40;;;;;;;11.63;65.07;95798.22;4353651;32;20196;-61
2023/01/02 10:22:37;;;;;;;0.53;0.53;;;;;;;11.57;65.55;95802.03;4360522;32;20193;-61
2023/01/02 10:25:14;;;;;;;0.80;0.63;;;;;;;11.64;65.20;95807.75;4361536;32;20181;-61
2023/01/02 10:27:52;;;;;;;2.47;1.57;;;;;;;11.51;66.56;95792.53;4372890;32;20195;-61
2023/01/02 10:30:24;;;;;;;1.00;1.00;;;;;;;11.72;65.32;95787.72;4353429;32;20223;-61
2023/01/02 10:32:57;;;;;;;0.80;0.80;;;;;;;11.75;65.77;95779.19;4365096;32;20188;-61
2023/01/02 10:35:33;;;;;;;0.83;0.83;;;;;;;11.90;63.46;95783.50;4362691;32;20185;-61
2023/01/02 10:38:01;;;;;;;0.57;0.57;;;;;;;11.71;67.57;95776.31;4368890;32;20219;-61
2023/01/02 10:40:29;;;;;;;1.57;1.47;;;;;;;11.81;65.98;95782.59;4359423;32;20226;-61
2023/01/02 10:42:56;;;;;;;1.30;1.20;;;;;;;12.05;62.13;95783.28;4352993;32;20177;-62
2023/01/02 10:45:22;;;;;;;0.50;0.50;;;;;;;12.19;61.72;95770.78;4358162;32;20181;-61
2023/01/02 10:47:47;;;;;;;0.80;0.77;;;;;;;12.26;62.39;95765.09;4363366;32;20195;-61
2023/01/02 10:50:26;;;;;;;0.50;0.50;;;;;;;12.35;61.08;95750.81;4357869;32;20196;-62
2023/01/02 10:53:03;;;;;;;0.60;0.60;;;;;;;12.44;62.17;95744.84;4356338;32;20234;-61
2023/01/02 10:55:47;;;;;;;0.73;0.73;;;;;;;12.35;62.46;95748.16;4370361;32;20184;-61
2023/01/02 10:58:27;;;;;;;5.87;0.87;;;;;;;12.51;60.06;95747.87;4371684;32;20204;-61
2023/01/02 11:01:21;;;;;;;0.60;0.60;;;;;;;12.43;61.97;95745.91;4363328;32;20186;-61
2023/01/02 11:04:19;;;;;;;2.13;1.03;;;;;;;12.51;59.91;95748.66;4352591;32;20199;-61
2023/01/02 11:06:54;;;;;;;1.07;0.97;;;;;;;12.51;60.65;95750.53;4359843;32;20429;-61
2023/01/02 11:09:22;;;;;;;0.83;0.50;;;;;;;12.57;59.53;95749.38;4369179;32;20176;-61
2023/01/02 11:11:57;;;;;;;0.27;0.27;;;;;;;12.65;59.10;95754.81;4363995;32;20184;-61
2023/01/02 11:14:29;;;;;;;0.40;0.40;;;;;;;12.65;59.11;95764.66;4371248;32;20214;-61
2023/01/02 11:17:02;;;;;;;0.83;0.73;;;;;;;13.01;56.46;95754.87;4354927;32;20182;-62
2023/01/02 11:19:28;;;;;;;1.40;0.40;;;;;;;13.04;56.54;95762.28;4365396;32;20268;-61
2023/01/02 11:21:55;;;;;;;0.60;0.60;;;;;;;13.12;56.03;95754.66;4363828;32;20186;-61
2023/01/02 11:24:24;;;;;;;0.70;0.70;;;;;;;13.21;54.83;95766.25;4372851;32;20188;-61
2023/01/02 11:26:50;;;;;;;1.13;0.97;;;;;;;13.17;56.59;95755.37;4361523;32;20193;-61
2023/01/02 11:29:30;;;;;;;0.40;0.40;;;;;;;13.21;54.61;95758.25;4368806;32;20185;-61
2023/01/02 11:31:58;;;;;;;0.43;0.43;;;;;;;13.37;53.26;95751.50;4359052;32;20254;-61
2023/01/02 11:34:31;;;;;;;0.57;0.57;;;;;;;13.39;53.22;95759.97;4361108;32;20224;-61
2023/01/02 11:37:26;;;;;;;0.60;0.50;;;;;;;13.56;54.05;95767.34;4364815;32;20216;-61
2023/01/02 11:40:04;;;;;;;0.57;0.57;;;;;;;13.62;53.33;95755.47;4341355;32;20228;-60
2023/01/02 11:45:32;;;;;;;0.53;0.53;;;;;;;13.53;52.52;95760.72;4358508;32;20195;-61
2023/01/02 11:48:04;;;;;;;0.43;0.33;;;;;;;13.55;52.74;95771.87;4365550;32;20191;-61
2023/01/02 11:50:33;;;;;;;0.47;0.47;;;;;;;13.53;52.32;95760.72;4362848;32;20306;-61
2023/01/02 11:53:16;;;;;;;0.73;0.63;;;;;;;13.57;52.61;95759.03;4361871;32;20191;-61
2023/01/02 11:55:55;;;;;;;0.90;0.90;;;;;;;13.51;53.08;95757.56;4351644;32;20176;-60
2023/01/02 11:58:47;;;;;;;1.40;1.10;;;;;;;13.55;52.42;95763.09;4365774;32;20279;-61
2023/01/02 12:01:22;;;;;;;0.40;0.40;;;;;;;13.47;52.64;95761.94;4363741;32;20219;-60